CST,Max TemperatureF,Mean TemperatureF,Min TemperatureF,Max Dew PointF,MeanDew PointF,Min DewpointF,Max Humidity, Mean Humidity, Min Humidity, Max Sea Level PressureIn, Mean Sea Level PressureIn, Min Sea Level PressureIn, Max VisibilityMiles, Mean VisibilityMiles, Min VisibilityMiles, Max Wind SpeedMPH, Mean Wind SpeedMPH, Max Gust SpeedMPH,PrecipitationIn, CloudCover, Events, WindDirDegrees
2013-11-1,54,48,41,44,42,39,93,78,63,29.81,29.66,29.53,10,10,8,18,9,22,0.02,7,Rain,261
2013-11-2,52,42,32,40,35,31,92,69,46,30.19,30.00,29.81,10,9,5,17,5,24,0.00,2,,317
2013-11-3,54,42,29,37,32,27,92,69,45,30.31,30.24,30.19,10,9,4,15,6,21,0.00,0,,139
2013-11-4,57,52,46,44,39,34,71,63,55,30.20,30.16,30.09,10,10,10,26,14,32,0.00,5,,176
2013-11-5,56,54,51,52,49,44,96,84,71,30.26,30.15,29.96,10,5,1,21,12,30,0.37,8,Rain,173
2013-11-6,57,46,34,55,42,27,93,82,70,30.26,30.01,29.86,10,8,2,21,11,30,0.67,7,Rain,272
2013-11-7,49,38,26,35,29,24,85,71,56,30.34,30.30,30.25,10,10,10,18,6,26,0.00,1,,265
2013-11-8,49,38,27,34,30,24,92,69,46,30.37,30.20,29.99,10,10,9,25,10,33,0.00,0,,189
2013-11-9,62,52,42,40,36,33,82,59,36,30.22,30.05,29.95,10,10,10,28,13,34,0.00,0,,259
2013-11-10,50,42,33,33,29,27,75,61,46,30.43,30.34,30.24,10,10,9,10,6,16,0.00,2,Snow,271
2013-11-11,52,39,25,39,31,17,92,73,54,30.57,30.29,30.15,10,6,1,17,9,27,0.16,7,Rain-Snow,353
2013-11-12,32,26,19,19,16,13,77,65,53,30.79,30.72,30.59,10,10,10,13,7,19,0.00,0,,310
2013-11-13,42,30,18,20,17,14,84,59,33,30.68,30.48,30.24,10,10,10,25,11,30,0.00,0,,210
2013-11-14,53,42,30,27,22,19,70,50,30,30.22,30.08,30.00,10,10,10,22,13,27,0.00,0,,198
2013-11-15,48,42,35,38,32,26,76,67,57,30.03,29.98,29.92,10,10,8,17,9,22,T,4,,187
2013-11-16,60,51,42,55,49,38,89,82,75,29.90,29.73,29.58,10,8,2,29,18,37,0.08,7,Rain,178
2013-11-17,70,58,45,63,54,37,93,80,66,29.94,29.46,29.24,10,9,0,45,14,70,1.64,6,Fog-Rain,227
2013-11-18,47,40,32,37,30,25,85,67,49,30.31,30.14,29.88,10,10,10,22,10,32,0.00,1,,292
2013-11-19,46,36,25,28,25,22,88,67,45,30.38,30.32,30.26,10,10,10,12,6,17,0.00,0,,121
2013-11-20,42,37,32,38,31,26,92,77,62,30.26,30.16,30.07,10,9,4,17,9,25,0.17,6,Rain,146
2013-11-21,49,46,42,47,43,38,93,85,76,30.24,30.16,30.10,10,5,1,9,4,13,0.10,8,Rain,6
2013-11-22,43,34,25,39,30,21,89,80,70,30.56,30.44,30.24,10,8,3,15,8,23,0.04,6,Rain,342
2013-11-23,25,20,14,21,11,5,88,67,45,30.79,30.66,30.53,10,10,10,17,9,26,T,2,,336
2013-11-24,28,19,10,12,6,1,83,57,31,30.81,30.65,30.43,10,10,10,14,6,18,0.00,0,,207
2013-11-25,33,28,23,24,18,12,78,63,47,30.39,30.23,30.15,10,10,5,20,11,23,0.01,7,Snow,218
2013-11-26,36,27,18,25,17,6,78,64,50,30.26,30.15,30.08,10,10,10,17,8,28,0.00,5,,305
2013-11-27,29,21,13,13,7,3,67,53,39,30.35,30.30,30.26,10,10,10,14,7,21,0.00,0,,312
2013-11-28,39,29,19,18,14,10,73,59,44,30.53,30.33,30.21,10,10,10,16,7,20,0.00,1,,268
2013-11-29,38,27,15,22,17,11,88,66,44,30.65,30.54,30.40,10,10,9,15,5,20,0.00,0,,150
2013-11-30,52,40,28,32,28,23,85,65,44,30.38,30.20,30.08,10,9,6,15,7,18,0.00,0,,191